Van Nuys, CA (91411)

10:28 PM PDT on July 07, 2015 (GMT -0700)
Valley College Weather Station | | Change Station
CLOSE
Current Station
Personal Weather Station
Location: Valley Glen, CA
Elevation: 699 ft
Nearby Weather Stations

Elev 699 ft 34.18 °N, 118.42 °W | Updated 26 seconds ago

Clear
Clear
63.4 °F
Feels Like 63.4 °F
N
0.0
Wind Variable Wind from South
Gusts 2.0 mph

Today
High -- | Low -- °F
--% Chance of Precip.
Yesterday
High -- | Low -- °F
Precip. -- in
5:48 AM 8:08 PM
Waning Gibbous, 57% visible
Pressure 29.88 in
Visibility 10.0 miles
Clouds Clear
Dew Point 60 °F
Humidity 88%
Rainfall 0.00 in
Snow Depth Not available.
UV 0 out of 12
Pollen 3.50 out of 12
Air Quality Not available.
Flu Activity Not available.
METAR KVNY 080451Z 10004KT 10SM CLR 19/15 A2990 RMK AO2 SLP117 T01890150

More Conditions Fewer Conditions

Pressure 29.88 in
Visibility 10.0 miles
Clouds Clear
Dew Point 60 °F
Humidity 88%
Rainfall 0.00 in
Snow Depth Not available.
UV 0 out of 12
Pollen 3.50 out of 12
Air Quality Not available.
Flu Activity Not available.
METAR KVNY 080451Z 10004KT 10SM CLR 19/15 A2990 RMK AO2 SLP117 T01890150

More Conditions Fewer Conditions

10-Day Weather Forecast

×

Almanac

Astronomy

Jul. 07, 2015 Rise Set
Actual Time
Civil Twilight
Nautical Twilight
Astronomical Twilight
Moon
Length of Visible Light
Length of Day
Tomorrow will be .
, % of the Moon is Illuminated

Today's Extremes

State Highs State Lows

Community

WunderPhotos

Upload Photos

1,836,055 photos uploaded!

WunderBlogs® & News

Nearby

Air Quality

  Air Quality AQ Index Pollutant
Not available.

Snow Depth

Station Depth Elevation

Earthquake Activity

City Distance Mag. Time & Date
Minimum magnitude displayed is 2.5.

Coastal Water Temperatures

Place Temperature

Stations

Nearby Weather Stations

Station Location Temp. Windchill Dew Point Humidity Wind Precip. Elev Updated Type